Kosice, Slovakia

8:57 PM CEST on August 28, 2016 (GMT +0200)
Šuhajova | | Change Station

Elev 643 ft 48.67 °N, 21.32 °E | Updated 1 minute ago

Clear
Clear
70.3 °F
Feels Like 74 °F
N
0.0
Wind Variable Wind from North
Gusts 0.6 mph

Today
High -- | Low -- °F
--% Chance of Precip.
Yesterday
High -- | Low -- °F
Precip. -- in
Pressure 30.06 in
Visibility -9999.0 miles
Clouds
Heat Index 74 °F
Dew Point 61 °F
Humidity 71%
Rainfall Not available.
Snow Depth Not available.
5:46 AM 7:24 PM
Waning Crescent, 14% visible
METAR LZKZ 281830Z 02004KT CAVOK 20/16 Q1018
Pressure 30.06 in
Visibility -9999.0 miles
Clouds
Heat Index 74 °F
Dew Point 61 °F
Humidity 71%
Rainfall Not available.
Snow Depth Not available.
5:46 AM 7:24 PM
Waning Crescent, 14% visible
METAR LZKZ 281830Z 02004KT CAVOK 20/16 Q1018

10-Day Weather Forecast

×

Almanac

Astronomy

Aug. 28, 2016 Rise Set
Actual Time
Civil Twilight
Nautical Twilight
Astronomical Twilight
Moon
Length of Visible Light
Length of Day
Tomorrow will be .
, % of the Moon is Illuminated

Today's Extremes

Country Highs Country Lows

Community

WunderPhotos

Upload Photos

1,935,647 photos uploaded!

WunderBlog® & News

Nearby

Air Quality

  Air Quality AQ Index Pollutant
Not available.

Snow Depth

Station Depth Elevation

Earthquake Activity

City Distance Mag. Time & Date
Minimum magnitude displayed is 2.5.

Coastal Water Temperatures

Place Temperature

Stations

Nearby Weather Stations

Station Location Temp. Windchill Dew Point Humidity Wind Precip. Elev Updated Type